This is the latest recevied weather packets stored in our database for station/object KC0MWM-2. If no packets are shown the sender has not sent any weather packets the latest 10 day(s).
| Time | Temp. | Humidity | Pressure | Rain* | Wind** | Luminosity | Snow |
|---|---|---|---|---|---|---|---|
| 1777774616 | 17.78° C | 41% | 1015.6 hPa | 0 mm | - | - | - |
| 1777772775 | 18.89° C | 37% | 1015.5 hPa | 0 mm | - | - | - |
| 1777771597 | 20° C | 35% | 1015.5 hPa | 0 mm | - | - | - |
| 1777769177 | 21.67° C | 31% | 1015.8 hPa | 0 mm | - | - | - |
| 1777763777 | 22.22° C | 29% | 1016.6 hPa | 0 mm | - | - | - |
| 1777758377 | 21.11° C | 29% | 1018 hPa | 0 mm | - | - | - |
| 1777756577 | 20° C | 31% | 1018.3 hPa | 0 mm | - | - | - |
| 1777755377 | 20° C | 30% | 1019 hPa | 0 mm | - | - | - |
| 1777754797 | 20° C | 31% | 1019.2 hPa | 0 mm | - | - | - |
| 1777752977 | 20° C | 29% | 1019.6 hPa | 0 mm | - | - | - |
| 1777750577 | 18.89° C | 32% | 1020 hPa | 0 mm | - | - | - |
| 1777748776 | 18.33° C | 32% | 1020.6 hPa | 0 mm | - | - | - |
| 1777744597 | 17.22° C | 36% | 1021.7 hPa | 0 mm | - | - | - |
| 1777741576 | 15.56° C | 38% | 1022.6 hPa | 0 mm | - | - | - |
| 1777730176 | 7.22° C | 66% | 1023.7 hPa | 0 mm | - | - | - |
| 1777725376 | 2.78° C | 77% | 1023.3 hPa | 0 mm | - | - | - |
| 1777724776 | 2.22° C | 78% | 1023.2 hPa | 0 mm | - | - | - |
| 1777721776 | 0.56° C | 80% | 1023 hPa | 0 mm | - | - | - |
| 1777719396 | 1.11° C | 79% | 1023 hPa | 0 mm | - | - | - |
| 1777718175 | 1.11° C | 78% | 1023 hPa | 0 mm | - | - | - |
| 1777716375 | 1.67° C | 78% | 1023.2 hPa | 0 mm | - | - | - |
| 1777713975 | 1.67° C | 78% | 1023.1 hPa | 0 mm | - | - | - |
| 1777713375 | 1.11° C | 78% | 1023 hPa | 0 mm | - | - | - |
| 1777710977 | 2.22° C | 75% | 1022.9 hPa | 0 mm | - | - | - |
| 1777709177 | 2.22° C | 76% | 1022.8 hPa | 0 mm | - | - | - |
* Rain latest hour (hover to see other rain measurements)
** Current wind speed in m/s (hover to see current wind gust speed)